sensor_id;sensor_type;location;lat;lon;timestamp;temperature;humidity
69628;DHT22;56850;51.984;5.088;2023-02-22T00:01:34;9.00;77.00
69628;DHT22;56850;51.984;5.088;2023-02-22T00:04:05;9.00;76.80
69628;DHT22;56850;51.984;5.088;2023-02-22T00:06:32;9.00;76.90
69628;DHT22;56850;51.984;5.088;2023-02-22T00:08:59;9.00;77.00
69628;DHT22;56850;51.984;5.088;2023-02-22T00:11:28;9.00;77.00
69628;DHT22;56850;51.984;5.088;2023-02-22T00:13:57;9.00;76.80
69628;DHT22;56850;51.984;5.088;2023-02-22T00:16:24;9.00;77.00
69628;DHT22;56850;51.984;5.088;2023-02-22T00:18:52;9.00;77.00
69628;DHT22;56850;51.984;5.088;2023-02-22T00:21:20;9.00;77.00
69628;DHT22;56850;51.984;5.088;2023-02-22T00:23:47;9.00;77.00
69628;DHT22;56850;51.984;5.088;2023-02-22T00:26:19;9.00;77.10
69628;DHT22;56850;51.984;5.088;2023-02-22T00:28:52;9.00;77.00
69628;DHT22;56850;51.984;5.088;2023-02-22T00:31:20;8.90;77.10
69628;DHT22;56850;51.984;5.088;2023-02-22T00:33:48;8.90;76.90
69628;DHT22;56850;51.984;5.088;2023-02-22T00:36:16;8.90;76.70
69628;DHT22;56850;51.984;5.088;2023-02-22T00:38:43;8.80;76.50
69628;DHT22;56850;51.984;5.088;2023-02-22T00:41:11;8.80;76.70
69628;DHT22;56850;51.984;5.088;2023-02-22T00:43:38;8.80;76.90
69628;DHT22;56850;51.984;5.088;2023-02-22T00:46:04;8.70;76.70
69628;DHT22;56850;51.984;5.088;2023-02-22T00:48:31;8.70;76.80
69628;DHT22;56850;51.984;5.088;2023-02-22T00:50:58;8.70;76.90
69628;DHT22;56850;51.984;5.088;2023-02-22T00:53:25;8.70;76.90
69628;DHT22;56850;51.984;5.088;2023-02-22T00:55:53;8.80;77.00
69628;DHT22;56850;51.984;5.088;2023-02-22T00:58:21;8.80;76.90
69628;DHT22;56850;51.984;5.088;2023-02-22T01:00:48;8.70;76.90
69628;DHT22;56850;51.984;5.088;2023-02-22T01:03:17;8.80;76.80
69628;DHT22;56850;51.984;5.088;2023-02-22T01:05:45;8.80;76.80
69628;DHT22;56850;51.984;5.088;2023-02-22T01:08:16;8.70;76.60
69628;DHT22;56850;51.984;5.088;2023-02-22T01:10:43;8.70;76.60
69628;DHT22;56850;51.984;5.088;2023-02-22T01:13:11;8.60;76.60
69628;DHT22;56850;51.984;5.088;2023-02-22T01:15:41;8.60;76.60
69628;DHT22;56850;51.984;5.088;2023-02-22T01:18:09;8.50;76.50
69628;DHT22;56850;51.984;5.088;2023-02-22T01:20:47;8.50;76.40
69628;DHT22;56850;51.984;5.088;2023-02-22T01:23:14;8.50;76.50
69628;DHT22;56850;51.984;5.088;2023-02-22T01:25:43;8.50;76.60
69628;DHT22;56850;51.984;5.088;2023-02-22T01:28:12;8.50;76.80
69628;DHT22;56850;51.984;5.088;2023-02-22T01:30:39;8.50;76.70
69628;DHT22;56850;51.984;5.088;2023-02-22T01:33:07;8.50;76.60
69628;DHT22;56850;51.984;5.088;2023-02-22T01:35:36;8.50;76.60
69628;DHT22;56850;51.984;5.088;2023-02-22T01:38:05;8.50;76.70
69628;DHT22;56850;51.984;5.088;2023-02-22T01:40:34;8.50;76.50
69628;DHT22;56850;51.984;5.088;2023-02-22T01:43:05;8.40;76.40
69628;DHT22;56850;51.984;5.088;2023-02-22T01:45:54;8.40;76.50
69628;DHT22;56850;51.984;5.088;2023-02-22T01:53:50;8.40;76.50
69628;DHT22;56850;51.984;5.088;2023-02-22T01:56:19;8.50;76.70
69628;DHT22;56850;51.984;5.088;2023-02-22T01:58:51;8.40;76.50
69628;DHT22;56850;51.984;5.088;2023-02-22T02:01:21;8.40;76.60
69628;DHT22;56850;51.984;5.088;2023-02-22T02:03:50;8.50;76.60
69628;DHT22;56850;51.984;5.088;2023-02-22T02:06:18;8.40;76.30
69628;DHT22;56850;51.984;5.088;2023-02-22T02:08:59;8.40;76.40
69628;DHT22;56850;51.984;5.088;2023-02-22T02:11:28;8.40;76.30
69628;DHT22;56850;51.984;5.088;2023-02-22T02:13:58;8.30;76.10
69628;DHT22;56850;51.984;5.088;2023-02-22T02:16:51;8.30;76.10
69628;DHT22;56850;51.984;5.088;2023-02-22T02:22:49;8.20;76.20
69628;DHT22;56850;51.984;5.088;2023-02-22T02:28:50;8.10;76.10
69628;DHT22;56850;51.984;5.088;2023-02-22T02:37:35;8.00;76.30
69628;DHT22;56850;51.984;5.088;2023-02-22T02:43:03;7.90;76.50
69628;DHT22;56850;51.984;5.088;2023-02-22T02:45:53;7.90;76.50
69628;DHT22;56850;51.984;5.088;2023-02-22T02:48:25;7.90;76.50
69628;DHT22;56850;51.984;5.088;2023-02-22T02:50:55;7.90;76.50
69628;DHT22;56850;51.984;5.088;2023-02-22T02:53:34;7.90;76.30
69628;DHT22;56850;51.984;5.088;2023-02-22T02:56:02;7.80;76.40
69628;DHT22;56850;51.984;5.088;2023-02-22T02:58:29;7.80;76.50
69628;DHT22;56850;51.984;5.088;2023-02-22T03:01:00;7.80;76.60
69628;DHT22;56850;51.984;5.088;2023-02-22T03:03:44;7.80;76.60
69628;DHT22;56850;51.984;5.088;2023-02-22T03:12:47;7.80;76.70
69628;DHT22;56850;51.984;5.088;2023-02-22T03:15:37;7.80;76.70
69628;DHT22;56850;51.984;5.088;2023-02-22T03:18:21;7.80;76.70
69628;DHT22;56850;51.984;5.088;2023-02-22T03:21:20;7.80;76.90
69628;DHT22;56850;51.984;5.088;2023-02-22T03:24:00;7.80;76.90
69628;DHT22;56850;51.984;5.088;2023-02-22T03:26:41;7.80;76.80
69628;DHT22;56850;51.984;5.088;2023-02-22T03:29:10;7.70;76.80
69628;DHT22;56850;51.984;5.088;2023-02-22T03:31:43;7.70;77.00
69628;DHT22;56850;51.984;5.088;2023-02-22T03:34:18;7.70;77.00
69628;DHT22;56850;51.984;5.088;2023-02-22T03:36:57;7.70;77.00
69628;DHT22;56850;51.984;5.088;2023-02-22T03:39:25;7.70;77.10
69628;DHT22;56850;51.984;5.088;2023-02-22T03:42:04;7.60;77.10
69628;DHT22;56850;51.984;5.088;2023-02-22T03:44:37;7.50;77.40
69628;DHT22;56850;51.984;5.088;2023-02-22T03:47:10;7.50;77.50
69628;DHT22;56850;51.984;5.088;2023-02-22T03:49:48;7.50;77.70
69628;DHT22;56850;51.984;5.088;2023-02-22T03:52:18;7.50;77.70
69628;DHT22;56850;51.984;5.088;2023-02-22T03:54:45;7.50;77.70
69628;DHT22;56850;51.984;5.088;2023-02-22T03:57:24;7.50;77.80
69628;DHT22;56850;51.984;5.088;2023-02-22T04:00:02;7.50;77.80
69628;DHT22;56850;51.984;5.088;2023-02-22T04:02:39;7.50;78.10
69628;DHT22;56850;51.984;5.088;2023-02-22T04:05:09;7.50;78.20
69628;DHT22;56850;51.984;5.088;2023-02-22T04:07:36;7.50;78.10
69628;DHT22;56850;51.984;5.088;2023-02-22T04:10:03;7.40;78.20
69628;DHT22;56850;51.984;5.088;2023-02-22T04:12:30;7.50;78.30
69628;DHT22;56850;51.984;5.088;2023-02-22T04:15:04;7.40;78.30
69628;DHT22;56850;51.984;5.088;2023-02-22T04:17:32;7.40;78.50
69628;DHT22;56850;51.984;5.088;2023-02-22T04:20:01;7.40;78.60
69628;DHT22;56850;51.984;5.088;2023-02-22T04:22:40;7.50;78.70
69628;DHT22;56850;51.984;5.088;2023-02-22T04:25:07;7.60;78.80
69628;DHT22;56850;51.984;5.088;2023-02-22T04:27:34;7.60;78.70
69628;DHT22;56850;51.984;5.088;2023-02-22T04:30:01;7.60;78.60
69628;DHT22;56850;51.984;5.088;2023-02-22T04:32:30;7.60;78.60
69628;DHT22;56850;51.984;5.088;2023-02-22T04:34:58;7.60;78.60
69628;DHT22;56850;51.984;5.088;2023-02-22T04:37:27;7.70;78.80
69628;DHT22;56850;51.984;5.088;2023-02-22T04:39:54;7.60;78.60
69628;DHT22;56850;51.984;5.088;2023-02-22T04:42:21;7.60;78.60
69628;DHT22;56850;51.984;5.088;2023-02-22T04:44:48;7.60;78.70
69628;DHT22;56850;51.984;5.088;2023-02-22T04:47:16;7.60;78.70
69628;DHT22;56850;51.984;5.088;2023-02-22T04:49:43;7.50;78.80
69628;DHT22;56850;51.984;5.088;2023-02-22T04:52:11;7.50;78.90
69628;DHT22;56850;51.984;5.088;2023-02-22T04:54:38;7.50;78.90
69628;DHT22;56850;51.984;5.088;2023-02-22T04:57:05;7.50;79.00
69628;DHT22;56850;51.984;5.088;2023-02-22T04:59:33;7.50;79.10
69628;DHT22;56850;51.984;5.088;2023-02-22T05:02:01;7.60;79.10
69628;DHT22;56850;51.984;5.088;2023-02-22T05:04:28;7.60;79.10
69628;DHT22;56850;51.984;5.088;2023-02-22T05:06:56;7.50;79.00
69628;DHT22;56850;51.984;5.088;2023-02-22T05:09:23;7.50;79.00
69628;DHT22;56850;51.984;5.088;2023-02-22T05:11:49;7.50;79.10
69628;DHT22;56850;51.984;5.088;2023-02-22T05:14:16;7.50;79.10
69628;DHT22;56850;51.984;5.088;2023-02-22T05:16:43;7.50;79.10
69628;DHT22;56850;51.984;5.088;2023-02-22T05:19:10;7.50;79.30
69628;DHT22;56850;51.984;5.088;2023-02-22T05:21:37;7.50;79.30
69628;DHT22;56850;51.984;5.088;2023-02-22T05:24:06;7.50;79.20
69628;DHT22;56850;51.984;5.088;2023-02-22T05:26:33;7.50;79.30
69628;DHT22;56850;51.984;5.088;2023-02-22T05:29:00;7.50;79.30
69628;DHT22;56850;51.984;5.088;2023-02-22T05:31:27;7.40;79.30
69628;DHT22;56850;51.984;5.088;2023-02-22T05:33:54;7.40;79.50
69628;DHT22;56850;51.984;5.088;2023-02-22T05:36:21;7.40;79.60
69628;DHT22;56850;51.984;5.088;2023-02-22T05:38:48;7.40;79.70
69628;DHT22;56850;51.984;5.088;2023-02-22T05:41:15;7.40;79.70
69628;DHT22;56850;51.984;5.088;2023-02-22T05:43:42;7.40;79.90
69628;DHT22;56850;51.984;5.088;2023-02-22T05:46:09;7.40;79.80
69628;DHT22;56850;51.984;5.088;2023-02-22T05:48:36;7.30;80.00
69628;DHT22;56850;51.984;5.088;2023-02-22T05:51:03;7.30;80.00
69628;DHT22;56850;51.984;5.088;2023-02-22T05:53:31;7.30;80.10
69628;DHT22;56850;51.984;5.088;2023-02-22T05:55:57;7.30;80.20
69628;DHT22;56850;51.984;5.088;2023-02-22T05:58:24;7.30;80.20
69628;DHT22;56850;51.984;5.088;2023-02-22T06:00:51;7.20;80.20
69628;DHT22;56850;51.984;5.088;2023-02-22T06:03:18;7.20;80.30
69628;DHT22;56850;51.984;5.088;2023-02-22T06:05:45;7.20;80.40
69628;DHT22;56850;51.984;5.088;2023-02-22T06:08:12;7.20;80.50
69628;DHT22;56850;51.984;5.088;2023-02-22T06:10:39;7.30;80.40
69628;DHT22;56850;51.984;5.088;2023-02-22T06:13:06;7.20;80.50
69628;DHT22;56850;51.984;5.088;2023-02-22T06:15:33;7.20;80.60
69628;DHT22;56850;51.984;5.088;2023-02-22T06:18:00;7.20;80.70
69628;DHT22;56850;51.984;5.088;2023-02-22T06:20:29;7.20;80.80
69628;DHT22;56850;51.984;5.088;2023-02-22T06:22:57;7.20;80.80
69628;DHT22;56850;51.984;5.088;2023-02-22T06:25:28;7.20;80.80
69628;DHT22;56850;51.984;5.088;2023-02-22T06:28:00;7.20;81.00
69628;DHT22;56850;51.984;5.088;2023-02-22T06:30:27;7.30;81.00
69628;DHT22;56850;51.984;5.088;2023-02-22T06:32:54;7.30;81.00
69628;DHT22;56850;51.984;5.088;2023-02-22T06:35:21;7.30;81.00
69628;DHT22;56850;51.984;5.088;2023-02-22T06:37:48;7.30;81.00
69628;DHT22;56850;51.984;5.088;2023-02-22T06:40:15;7.30;81.10
69628;DHT22;56850;51.984;5.088;2023-02-22T06:42:42;7.40;81.00
69628;DHT22;56850;51.984;5.088;2023-02-22T06:45:10;7.40;81.10
69628;DHT22;56850;51.984;5.088;2023-02-22T06:47:38;7.40;81.10
69628;DHT22;56850;51.984;5.088;2023-02-22T06:50:10;7.40;81.20
69628;DHT22;56850;51.984;5.088;2023-02-22T06:52:43;7.40;81.10
69628;DHT22;56850;51.984;5.088;2023-02-22T06:55:26;7.40;81.20
69628;DHT22;56850;51.984;5.088;2023-02-22T06:57:53;7.50;81.20
69628;DHT22;56850;51.984;5.088;2023-02-22T07:00:23;7.50;81.20
69628;DHT22;56850;51.984;5.088;2023-02-22T07:02:51;7.50;81.20
69628;DHT22;56850;51.984;5.088;2023-02-22T07:05:20;7.60;81.20
69628;DHT22;56850;51.984;5.088;2023-02-22T07:07:48;7.60;81.10
69628;DHT22;56850;51.984;5.088;2023-02-22T07:10:28;7.60;81.00
69628;DHT22;56850;51.984;5.088;2023-02-22T07:12:55;7.60;80.90
69628;DHT22;56850;51.984;5.088;2023-02-22T07:15:24;7.60;80.70
69628;DHT22;56850;51.984;5.088;2023-02-22T07:17:51;7.60;80.80
69628;DHT22;56850;51.984;5.088;2023-02-22T07:20:19;7.50;80.80
69628;DHT22;56850;51.984;5.088;2023-02-22T07:22:47;7.50;80.80
69628;DHT22;56850;51.984;5.088;2023-02-22T07:25:15;7.50;80.90
69628;DHT22;56850;51.984;5.088;2023-02-22T07:27:42;7.50;80.90
69628;DHT22;56850;51.984;5.088;2023-02-22T07:30:21;7.50;80.80
69628;DHT22;56850;51.984;5.088;2023-02-22T07:32:53;7.50;80.80
69628;DHT22;56850;51.984;5.088;2023-02-22T07:35:24;7.50;80.80
69628;DHT22;56850;51.984;5.088;2023-02-22T07:37:51;7.50;80.80
69628;DHT22;56850;51.984;5.088;2023-02-22T07:40:22;7.50;80.70
69628;DHT22;56850;51.984;5.088;2023-02-22T07:43:01;7.50;80.80
69628;DHT22;56850;51.984;5.088;2023-02-22T07:45:33;7.50;80.90
69628;DHT22;56850;51.984;5.088;2023-02-22T07:48:02;7.50;80.90
69628;DHT22;56850;51.984;5.088;2023-02-22T07:50:33;7.50;80.90
69628;DHT22;56850;51.984;5.088;2023-02-22T07:53:02;7.60;80.80
69628;DHT22;56850;51.984;5.088;2023-02-22T07:55:30;7.60;80.90
69628;DHT22;56850;51.984;5.088;2023-02-22T07:58:05;7.60;80.90
69628;DHT22;56850;51.984;5.088;2023-02-22T08:00:37;7.60;80.90
69628;DHT22;56850;51.984;5.088;2023-02-22T08:03:07;7.60;80.70
69628;DHT22;56850;51.984;5.088;2023-02-22T08:05:36;7.60;80.70
69628;DHT22;56850;51.984;5.088;2023-02-22T08:08:04;7.60;80.70
69628;DHT22;56850;51.984;5.088;2023-02-22T08:10:33;7.60;80.60
69628;DHT22;56850;51.984;5.088;2023-02-22T08:13:02;7.60;80.60
69628;DHT22;56850;51.984;5.088;2023-02-22T08:15:31;7.60;80.60
69628;DHT22;56850;51.984;5.088;2023-02-22T08:17:59;7.60;80.70
69628;DHT22;56850;51.984;5.088;2023-02-22T08:20:27;7.50;80.70
69628;DHT22;56850;51.984;5.088;2023-02-22T08:22:55;7.50;80.70
69628;DHT22;56850;51.984;5.088;2023-02-22T08:25:25;7.50;80.80
69628;DHT22;56850;51.984;5.088;2023-02-22T08:27:57;7.60;80.80
69628;DHT22;56850;51.984;5.088;2023-02-22T08:30:26;7.50;80.90
69628;DHT22;56850;51.984;5.088;2023-02-22T08:32:53;7.60;81.00
69628;DHT22;56850;51.984;5.088;2023-02-22T08:35:21;7.60;81.10
69628;DHT22;56850;51.984;5.088;2023-02-22T08:37:51;7.70;81.00
69628;DHT22;56850;51.984;5.088;2023-02-22T08:40:22;7.70;81.00
69628;DHT22;56850;51.984;5.088;2023-02-22T08:42:49;7.80;80.90
69628;DHT22;56850;51.984;5.088;2023-02-22T08:45:16;7.80;80.80
69628;DHT22;56850;51.984;5.088;2023-02-22T08:47:43;7.80;80.90
69628;DHT22;56850;51.984;5.088;2023-02-22T08:50:17;7.80;80.90
69628;DHT22;56850;51.984;5.088;2023-02-22T08:52:44;7.90;80.90
69628;DHT22;56850;51.984;5.088;2023-02-22T08:55:11;7.90;81.00
69628;DHT22;56850;51.984;5.088;2023-02-22T08:57:38;8.00;80.80
69628;DHT22;56850;51.984;5.088;2023-02-22T09:00:05;8.00;80.80
69628;DHT22;56850;51.984;5.088;2023-02-22T09:02:32;8.00;80.70
69628;DHT22;56850;51.984;5.088;2023-02-22T09:05:00;8.00;80.70
69628;DHT22;56850;51.984;5.088;2023-02-22T09:07:27;8.00;80.50
69628;DHT22;56850;51.984;5.088;2023-02-22T09:09:54;8.10;80.60
69628;DHT22;56850;51.984;5.088;2023-02-22T09:12:20;8.10;80.60
69628;DHT22;56850;51.984;5.088;2023-02-22T09:14:47;8.10;80.50
69628;DHT22;56850;51.984;5.088;2023-02-22T09:17:14;8.10;80.60
69628;DHT22;56850;51.984;5.088;2023-02-22T09:19:41;8.10;80.50
69628;DHT22;56850;51.984;5.088;2023-02-22T09:22:08;8.20;80.50
69628;DHT22;56850;51.984;5.088;2023-02-22T09:24:35;8.20;80.70
69628;DHT22;56850;51.984;5.088;2023-02-22T09:27:02;8.30;80.70
69628;DHT22;56850;51.984;5.088;2023-02-22T09:29:30;8.30;80.60
69628;DHT22;56850;51.984;5.088;2023-02-22T09:31:57;8.40;80.60
69628;DHT22;56850;51.984;5.088;2023-02-22T09:34:24;8.50;80.50
69628;DHT22;56850;51.984;5.088;2023-02-22T09:36:56;8.50;80.40
69628;DHT22;56850;51.984;5.088;2023-02-22T09:39:23;8.50;80.30
69628;DHT22;56850;51.984;5.088;2023-02-22T09:45:15;8.60;80.20
69628;DHT22;56850;51.984;5.088;2023-02-22T09:47:48;8.60;80.30
69628;DHT22;56850;51.984;5.088;2023-02-22T09:50:21;8.70;80.30
69628;DHT22;56850;51.984;5.088;2023-02-22T09:53:05;8.70;80.30
69628;DHT22;56850;51.984;5.088;2023-02-22T09:55:37;8.80;80.00
69628;DHT22;56850;51.984;5.088;2023-02-22T10:00:48;8.90;80.00
69628;DHT22;56850;51.984;5.088;2023-02-22T10:03:32;8.90;80.00
69628;DHT22;56850;51.984;5.088;2023-02-22T10:08:33;9.00;79.80
69628;DHT22;56850;51.984;5.088;2023-02-22T10:11:15;9.00;79.60
69628;DHT22;56850;51.984;5.088;2023-02-22T10:13:54;9.00;79.70
69628;DHT22;56850;51.984;5.088;2023-02-22T10:19:45;9.00;79.40
69628;DHT22;56850;51.984;5.088;2023-02-22T10:24:53;9.00;79.50
69628;DHT22;56850;51.984;5.088;2023-02-22T10:27:33;9.00;79.50
69628;DHT22;56850;51.984;5.088;2023-02-22T10:30:13;9.10;79.50
69628;DHT22;56850;51.984;5.088;2023-02-22T10:33:15;9.10;79.50
69628;DHT22;56850;51.984;5.088;2023-02-22T10:35:43;9.10;79.50
69628;DHT22;56850;51.984;5.088;2023-02-22T10:43:17;9.20;79.40
69628;DHT22;56850;51.984;5.088;2023-02-22T10:45:43;9.30;79.20
69628;DHT22;56850;51.984;5.088;2023-02-22T10:48:16;9.30;79.20
69628;DHT22;56850;51.984;5.088;2023-02-22T10:50:45;9.30;79.10
69628;DHT22;56850;51.984;5.088;2023-02-22T10:53:13;9.30;79.10
69628;DHT22;56850;51.984;5.088;2023-02-22T10:56:18;9.40;79.00
69628;DHT22;56850;51.984;5.088;2023-02-22T10:59:02;9.40;79.10
69628;DHT22;56850;51.984;5.088;2023-02-22T11:06:33;9.60;78.90
69628;DHT22;56850;51.984;5.088;2023-02-22T11:11:37;9.60;78.30
69628;DHT22;56850;51.984;5.088;2023-02-22T11:14:05;9.60;78.50
69628;DHT22;56850;51.984;5.088;2023-02-22T11:16:37;9.70;78.60
69628;DHT22;56850;51.984;5.088;2023-02-22T11:19:21;9.70;78.50
69628;DHT22;56850;51.984;5.088;2023-02-22T11:21:53;9.70;78.30
69628;DHT22;56850;51.984;5.088;2023-02-22T11:24:22;9.70;78.00
69628;DHT22;56850;51.984;5.088;2023-02-22T11:26:57;9.70;78.10
69628;DHT22;56850;51.984;5.088;2023-02-22T11:29:33;9.70;78.00
69628;DHT22;56850;51.984;5.088;2023-02-22T11:32:11;9.70;78.00
69628;DHT22;56850;51.984;5.088;2023-02-22T11:34:40;9.80;78.20
69628;DHT22;56850;51.984;5.088;2023-02-22T11:40:15;9.90;78.10
69628;DHT22;56850;51.984;5.088;2023-02-22T11:42:49;10.00;77.90
69628;DHT22;56850;51.984;5.088;2023-02-22T11:45:31;10.10;77.90
69628;DHT22;56850;51.984;5.088;2023-02-22T11:48:00;10.10;77.50
69628;DHT22;56850;51.984;5.088;2023-02-22T11:50:29;10.10;77.50
69628;DHT22;56850;51.984;5.088;2023-02-22T11:55:57;10.20;77.40
69628;DHT22;56850;51.984;5.088;2023-02-22T11:58:40;10.30;77.50
69628;DHT22;56850;51.984;5.088;2023-02-22T12:01:21;10.30;77.40
69628;DHT22;56850;51.984;5.088;2023-02-22T12:09:54;10.60;77.00
69628;DHT22;56850;51.984;5.088;2023-02-22T12:12:37;10.70;76.60
69628;DHT22;56850;51.984;5.088;2023-02-22T12:20:35;10.80;76.30
69628;DHT22;56850;51.984;5.088;2023-02-22T12:25:51;10.90;76.00
69628;DHT22;56850;51.984;5.088;2023-02-22T12:28:31;10.90;75.70
69628;DHT22;56850;51.984;5.088;2023-02-22T12:31:16;11.00;75.80
69628;DHT22;56850;51.984;5.088;2023-02-22T12:34:01;11.00;75.50
69628;DHT22;56850;51.984;5.088;2023-02-22T12:36:38;11.10;75.50
69628;DHT22;56850;51.984;5.088;2023-02-22T12:45:35;11.20;75.10
69628;DHT22;56850;51.984;5.088;2023-02-22T12:48:25;11.20;74.80
69628;DHT22;56850;51.984;5.088;2023-02-22T12:51:06;11.20;74.80
69628;DHT22;56850;51.984;5.088;2023-02-22T12:53:39;11.20;74.90
69628;DHT22;56850;51.984;5.088;2023-02-22T12:56:24;11.20;74.80
69628;DHT22;56850;51.984;5.088;2023-02-22T13:01:57;11.20;74.80
69628;DHT22;56850;51.984;5.088;2023-02-22T13:04:25;11.20;74.40
69628;DHT22;56850;51.984;5.088;2023-02-22T13:10:02;11.20;74.20
69628;DHT22;56850;51.984;5.088;2023-02-22T13:12:52;11.10;74.20
69628;DHT22;56850;51.984;5.088;2023-02-22T13:21:01;11.10;74.40
69628;DHT22;56850;51.984;5.088;2023-02-22T13:23:37;11.10;74.40
69628;DHT22;56850;51.984;5.088;2023-02-22T13:26:25;11.10;74.30
69628;DHT22;56850;51.984;5.088;2023-02-22T13:29:01;11.10;74.20
69628;DHT22;56850;51.984;5.088;2023-02-22T13:42:30;11.20;74.20
69628;DHT22;56850;51.984;5.088;2023-02-22T13:53:58;11.30;74.00
69628;DHT22;56850;51.984;5.088;2023-02-22T13:56:25;11.30;74.00
69628;DHT22;56850;51.984;5.088;2023-02-22T13:59:01;11.30;73.90
69628;DHT22;56850;51.984;5.088;2023-02-22T14:01:46;11.20;73.80
69628;DHT22;56850;51.984;5.088;2023-02-22T14:06:47;11.20;73.60
69628;DHT22;56850;51.984;5.088;2023-02-22T14:09:16;11.20;73.90
69628;DHT22;56850;51.984;5.088;2023-02-22T14:11:46;11.20;74.00
69628;DHT22;56850;51.984;5.088;2023-02-22T14:14:15;11.30;73.90
69628;DHT22;56850;51.984;5.088;2023-02-22T14:16:43;11.30;73.70
69628;DHT22;56850;51.984;5.088;2023-02-22T14:19:16;11.30;73.50
69628;DHT22;56850;51.984;5.088;2023-02-22T14:22:00;11.20;73.70
69628;DHT22;56850;51.984;5.088;2023-02-22T14:24:49;11.20;73.80
69628;DHT22;56850;51.984;5.088;2023-02-22T14:27:17;11.20;73.90
69628;DHT22;56850;51.984;5.088;2023-02-22T14:29:57;11.20;73.90
69628;DHT22;56850;51.984;5.088;2023-02-22T14:32:33;11.20;73.90
69628;DHT22;56850;51.984;5.088;2023-02-22T14:35:05;11.20;73.90
69628;DHT22;56850;51.984;5.088;2023-02-22T14:37:50;11.20;74.00
69628;DHT22;56850;51.984;5.088;2023-02-22T14:40:30;11.30;73.90
69628;DHT22;56850;51.984;5.088;2023-02-22T14:45:31;11.30;74.00
69628;DHT22;56850;51.984;5.088;2023-02-22T14:48:26;11.20;74.00
69628;DHT22;56850;51.984;5.088;2023-02-22T14:50:58;11.30;74.00
69628;DHT22;56850;51.984;5.088;2023-02-22T14:54:05;11.20;73.90
69628;DHT22;56850;51.984;5.088;2023-02-22T14:57:06;11.20;73.90
69628;DHT22;56850;51.984;5.088;2023-02-22T15:03:25;11.30;74.10
69628;DHT22;56850;51.984;5.088;2023-02-22T15:05:54;11.30;74.10
69628;DHT22;56850;51.984;5.088;2023-02-22T15:08:26;11.40;73.90
69628;DHT22;56850;51.984;5.088;2023-02-22T15:10:54;11.30;74.00
69628;DHT22;56850;51.984;5.088;2023-02-22T15:13:24;11.30;74.00
69628;DHT22;56850;51.984;5.088;2023-02-22T15:16:02;11.30;74.00
69628;DHT22;56850;51.984;5.088;2023-02-22T15:18:34;11.30;74.00
69628;DHT22;56850;51.984;5.088;2023-02-22T15:21:08;11.30;73.90
69628;DHT22;56850;51.984;5.088;2023-02-22T15:24:00;11.30;73.80
69628;DHT22;56850;51.984;5.088;2023-02-22T15:26:38;11.30;73.90
69628;DHT22;56850;51.984;5.088;2023-02-22T15:29:22;11.30;74.10
69628;DHT22;56850;51.984;5.088;2023-02-22T15:31:53;11.30;74.00
69628;DHT22;56850;51.984;5.088;2023-02-22T15:34:31;11.30;74.00
69628;DHT22;56850;51.984;5.088;2023-02-22T15:37:20;11.30;74.10
69628;DHT22;56850;51.984;5.088;2023-02-22T15:39:51;11.30;74.00
69628;DHT22;56850;51.984;5.088;2023-02-22T15:42:26;11.30;73.90
69628;DHT22;56850;51.984;5.088;2023-02-22T15:44:56;11.30;73.90
69628;DHT22;56850;51.984;5.088;2023-02-22T15:47:28;11.20;74.10
69628;DHT22;56850;51.984;5.088;2023-02-22T15:50:31;11.20;74.20
69628;DHT22;56850;51.984;5.088;2023-02-22T15:53:22;11.20;74.20
69628;DHT22;56850;51.984;5.088;2023-02-22T15:56:01;11.20;74.40
69628;DHT22;56850;51.984;5.088;2023-02-22T15:58:31;11.20;74.30
69628;DHT22;56850;51.984;5.088;2023-02-22T16:01:03;11.20;74.20
69628;DHT22;56850;51.984;5.088;2023-02-22T16:06:34;11.10;74.40
69628;DHT22;56850;51.984;5.088;2023-02-22T16:09:11;11.10;74.50
69628;DHT22;56850;51.984;5.088;2023-02-22T16:11:41;11.10;74.60
69628;DHT22;56850;51.984;5.088;2023-02-22T16:14:40;11.20;74.60
69628;DHT22;56850;51.984;5.088;2023-02-22T16:22:48;11.10;74.70
69628;DHT22;56850;51.984;5.088;2023-02-22T16:27:51;11.10;75.00
69628;DHT22;56850;51.984;5.088;2023-02-22T16:32:54;11.00;75.10
69628;DHT22;56850;51.984;5.088;2023-02-22T16:35:24;11.00;75.20
69628;DHT22;56850;51.984;5.088;2023-02-22T16:38:03;11.00;75.20
69628;DHT22;56850;51.984;5.088;2023-02-22T16:40:44;11.00;75.30
69628;DHT22;56850;51.984;5.088;2023-02-22T16:43:15;11.00;75.40
69628;DHT22;56850;51.984;5.088;2023-02-22T16:45:43;11.00;75.40
69628;DHT22;56850;51.984;5.088;2023-02-22T16:48:27;11.00;75.30
69628;DHT22;56850;51.984;5.088;2023-02-22T16:51:04;11.00;75.30
69628;DHT22;56850;51.984;5.088;2023-02-22T16:53:32;11.00;75.40
69628;DHT22;56850;51.984;5.088;2023-02-22T16:56:04;10.90;75.40
69628;DHT22;56850;51.984;5.088;2023-02-22T16:58:37;10.90;75.60
69628;DHT22;56850;51.984;5.088;2023-02-22T17:01:04;10.90;75.60
69628;DHT22;56850;51.984;5.088;2023-02-22T17:03:31;10.90;75.80
69628;DHT22;56850;51.984;5.088;2023-02-22T17:05:58;10.90;75.60
69628;DHT22;56850;51.984;5.088;2023-02-22T17:08:25;10.90;75.70
69628;DHT22;56850;51.984;5.088;2023-02-22T17:10:53;11.00;75.80
69628;DHT22;56850;51.984;5.088;2023-02-22T17:13:23;10.90;75.70
69628;DHT22;56850;51.984;5.088;2023-02-22T17:15:52;11.00;75.80
69628;DHT22;56850;51.984;5.088;2023-02-22T17:18:25;11.00;75.80
69628;DHT22;56850;51.984;5.088;2023-02-22T17:20:54;11.00;75.80
69628;DHT22;56850;51.984;5.088;2023-02-22T17:23:24;11.00;75.80
69628;DHT22;56850;51.984;5.088;2023-02-22T17:25:55;11.00;75.80
69628;DHT22;56850;51.984;5.088;2023-02-22T17:28:26;10.90;75.90
69628;DHT22;56850;51.984;5.088;2023-02-22T17:30:54;10.90;76.10
69628;DHT22;56850;51.984;5.088;2023-02-22T17:33:28;10.90;76.30
69628;DHT22;56850;51.984;5.088;2023-02-22T17:35:57;10.90;76.20
69628;DHT22;56850;51.984;5.088;2023-02-22T17:38:24;10.90;76.50
69628;DHT22;56850;51.984;5.088;2023-02-22T17:40:55;10.90;76.50
69628;DHT22;56850;51.984;5.088;2023-02-22T17:43:24;10.90;76.60
69628;DHT22;56850;51.984;5.088;2023-02-22T17:45:51;10.90;76.80
69628;DHT22;56850;51.984;5.088;2023-02-22T17:48:26;10.90;76.80
69628;DHT22;56850;51.984;5.088;2023-02-22T17:50:53;10.90;76.80
69628;DHT22;56850;51.984;5.088;2023-02-22T17:53:20;10.90;76.80
69628;DHT22;56850;51.984;5.088;2023-02-22T17:55:51;10.90;76.90
69628;DHT22;56850;51.984;5.088;2023-02-22T17:58:18;10.90;77.00
69628;DHT22;56850;51.984;5.088;2023-02-22T18:00:48;10.90;77.10
69628;DHT22;56850;51.984;5.088;2023-02-22T18:03:18;10.90;77.30
69628;DHT22;56850;51.984;5.088;2023-02-22T18:05:48;10.90;77.20
69628;DHT22;56850;51.984;5.088;2023-02-22T18:08:16;10.90;77.30
69628;DHT22;56850;51.984;5.088;2023-02-22T18:10:44;10.90;77.30
69628;DHT22;56850;51.984;5.088;2023-02-22T18:13:13;10.80;77.50
69628;DHT22;56850;51.984;5.088;2023-02-22T18:15:42;10.80;77.60
69628;DHT22;56850;51.984;5.088;2023-02-22T18:18:10;10.80;77.70
69628;DHT22;56850;51.984;5.088;2023-02-22T18:20:41;10.80;77.80
69628;DHT22;56850;51.984;5.088;2023-02-22T18:23:14;10.80;77.70
69628;DHT22;56850;51.984;5.088;2023-02-22T18:25:46;10.80;77.90